Time;durP1;ratioP1;P1;durP2;ratioP2;P2;SDS_P1;SDS_P2;PMS_P1;PMS_P2;Temp;Humidity;BMP_temperature;BMP_pressure;BME280_temperature;BME280_humidity;BME280_pressure;Samples;Min_cycle;Max_cycle;Signal;HPM_P1;HPM_P2
2022/09/09 00:01:34;;;;;;;0.32;0.20;;;23.90;65.50;;;;;;5000967;28;20098;-43
2022/09/09 00:04:05;;;;;;;0.88;0.30;;;24.00;65.50;;;;;;5004306;28;20032;-42
2022/09/09 00:06:35;;;;;;;0.35;0.20;;;24.00;65.50;;;;;;4998679;28;20127;-42
2022/09/09 00:09:07;;;;;;;0.40;0.30;;;24.00;65.50;;;;;;5003762;28;20062;-42
2022/09/09 00:11:41;;;;;;;0.30;0.22;;;24.00;65.50;;;;;;5003402;28;20042;-44
2022/09/09 00:14:12;;;;;;;0.45;0.30;;;24.00;65.50;;;;;;4993674;28;20027;-41
2022/09/09 00:16:38;;;;;;;0.25;0.20;;;23.90;65.40;;;;;;4983956;28;20058;-42
2022/09/09 00:19:03;;;;;;;0.60;0.28;;;23.90;65.40;;;;;;4984160;28;20042;-44
2022/09/09 00:21:35;;;;;;;0.50;0.50;;;23.90;65.40;;;;;;4997560;28;20098;-43
2022/09/09 00:24:13;;;;;;;0.47;0.30;;;23.90;65.40;;;;;;4999734;28;20488;-42
2022/09/09 00:26:42;;;;;;;0.25;0.20;;;23.90;65.30;;;;;;5002700;28;20050;-41
2022/09/09 00:29:23;;;;;;;0.95;0.20;;;23.90;65.40;;;;;;5015954;28;20106;-42
2022/09/09 00:31:49;;;;;;;0.55;0.20;;;23.90;65.30;;;;;;5015009;28;20034;-41
2022/09/09 00:34:20;;;;;;;0.40;0.22;;;24.00;65.40;;;;;;4997460;28;20049;-41
2022/09/09 00:36:45;;;;;;;0.63;0.40;;;23.90;65.30;;;;;;4995168;28;20038;-43
2022/09/09 00:39:34;;;;;;;0.30;0.30;;;23.90;65.50;;;;;;4980728;28;20091;-40
2022/09/09 00:42:19;;;;;;;0.30;0.30;;;23.90;65.40;;;;;;5007456;28;20041;-41
2022/09/09 00:45:13;;;;;;;1.25;0.30;;;23.90;65.30;;;;;;5013980;28;20450;-48
2022/09/09 00:47:52;;;;;;;0.40;0.30;;;23.90;65.50;;;;;;4978768;28;20085;-43
2022/09/09 00:50:39;;;;;;;0.20;0.20;;;23.90;65.50;;;;;;5000194;28;20046;-47
2022/09/09 00:53:22;;;;;;;0.47;0.32;;;23.90;65.50;;;;;;5003128;28;20034;-43
2022/09/09 00:56:02;;;;;;;0.27;0.27;;;23.90;65.40;;;;;;5007359;28;20407;-49
2022/09/09 00:58:28;;;;;;;0.30;0.30;;;23.90;65.60;;;;;;5016779;28;20297;-44
2022/09/09 01:00:58;;;;;;;0.40;0.30;;;23.90;66.50;;;;;;5006200;28;20038;-43
2022/09/09 01:03:49;;;;;;;1.38;0.25;;;23.90;65.70;;;;;;4992848;28;20131;-44
2022/09/09 01:06:18;;;;;;;0.30;0.25;;;23.90;65.50;;;;;;4993048;28;20046;-44
2022/09/09 01:08:59;;;;;;;0.57;0.32;;;23.90;65.60;;;;;;4995132;28;20045;-43
2022/09/09 01:11:26;;;;;;;0.50;0.30;;;23.90;65.60;;;;;;4998187;28;20109;-44
2022/09/09 01:14:20;;;;;;;0.10;0.10;;;23.90;65.30;;;;;;4998065;28;20038;-43
2022/09/09 01:16:46;;;;;;;0.30;0.30;;;23.90;65.50;;;;;;4990930;28;20042;-45
2022/09/09 01:19:17;;;;;;;0.20;0.20;;;23.90;65.50;;;;;;4992116;28;20046;-47
2022/09/09 01:21:56;;;;;;;0.30;0.20;;;23.90;65.60;;;;;;4995604;28;20060;-44
2022/09/09 01:24:45;;;;;;;0.50;0.20;;;23.90;65.50;;;;;;4993566;28;20034;-42
2022/09/09 01:27:11;;;;;;;0.40;0.30;;;23.90;65.60;;;;;;4986594;28;20075;-43
2022/09/09 01:29:37;;;;;;;0.47;0.30;;;23.90;65.70;;;;;;4997480;28;20054;-44
2022/09/09 01:32:39;;;;;;;0.45;0.20;;;23.90;65.60;;;;;;5000010;28;20457;-44
2022/09/09 01:35:05;;;;;;;0.30;0.30;;;23.90;65.60;;;;;;5017809;28;20042;-42
2022/09/09 01:37:31;;;;;;;0.30;0.30;;;23.90;65.70;;;;;;4999717;28;20046;-50
2022/09/09 01:39:57;;;;;;;0.47;0.28;;;23.80;65.70;;;;;;4994409;28;20034;-46
2022/09/09 01:42:22;;;;;;;0.50;0.50;;;23.90;66.40;;;;;;4996240;28;20090;-41
2022/09/09 01:44:48;;;;;;;0.43;0.30;;;23.90;65.70;;;;;;4998008;28;20508;-45
2022/09/09 01:47:14;;;;;;;0.20;0.20;;;23.80;65.80;;;;;;4996296;28;20141;-44
2022/09/09 01:49:40;;;;;;;0.50;0.20;;;23.80;65.60;;;;;;5002674;28;20042;-43
2022/09/09 01:52:06;;;;;;;0.20;0.20;;;23.80;65.60;;;;;;4995895;28;20573;-48
2022/09/09 01:54:32;;;;;;;0.32;0.20;;;23.90;65.70;;;;;;4993377;28;20450;-43
2022/09/09 01:57:06;;;;;;;0.40;0.40;;;23.80;65.90;;;;;;4994156;28;20504;-46
2022/09/09 01:59:35;;;;;;;0.20;0.20;;;23.80;65.70;;;;;;4994316;28;20049;-50
2022/09/09 02:02:08;;;;;;;1.60;0.38;;;23.80;65.80;;;;;;4994423;28;20050;-44
2022/09/09 02:04:41;;;;;;;0.50;0.50;;;23.80;65.80;;;;;;4998878;28;20049;-42
2022/09/09 02:07:44;;;;;;;0.20;0.20;;;23.80;65.70;;;;;;4999397;28;20050;-43
2022/09/09 02:10:25;;;;;;;0.38;0.30;;;23.80;65.60;;;;;;4994072;28;20125;-43
2022/09/09 02:13:12;;;;;;;0.22;0.22;;;23.80;65.60;;;;;;5014151;28;20042;-46
2022/09/09 02:15:45;;;;;;;0.50;0.10;;;23.80;65.70;;;;;;4997505;28;20067;-42
2022/09/09 02:18:13;;;;;;;0.40;0.20;;;23.80;65.70;;;;;;5013599;28;20042;-44
2022/09/09 02:20:38;;;;;;;0.82;0.35;;;23.80;65.60;;;;;;4997978;28;20129;-43
2022/09/09 02:23:05;;;;;;;0.50;0.20;;;23.80;65.80;;;;;;4999567;28;20129;-45
2022/09/09 02:25:30;;;;;;;0.57;0.47;;;23.80;65.80;;;;;;4980266;28;20031;-45
2022/09/09 02:27:58;;;;;;;0.20;0.10;;;23.80;65.70;;;;;;4997827;28;20073;-41
2022/09/09 02:30:23;;;;;;;0.30;0.20;;;23.80;65.70;;;;;;4999376;28;20046;-43
2022/09/09 02:32:49;;;;;;;0.40;0.22;;;23.80;65.80;;;;;;4998456;28;20466;-43
2022/09/09 02:35:17;;;;;;;0.68;0.30;;;23.80;65.70;;;;;;5000457;28;20042;-42
2022/09/09 02:37:45;;;;;;;0.63;0.38;;;23.80;65.70;;;;;;4997422;28;20056;-41
2022/09/09 02:40:11;;;;;;;0.40;0.30;;;23.80;65.80;;;;;;4994614;28;20046;-42
2022/09/09 02:42:43;;;;;;;0.38;0.22;;;23.80;65.70;;;;;;4997719;28;20053;-44
2022/09/09 02:45:10;;;;;;;0.35;0.20;;;23.80;65.60;;;;;;5001228;28;20088;-43
2022/09/09 02:47:42;;;;;;;0.45;0.20;;;23.80;65.70;;;;;;5002102;28;20054;-43
2022/09/09 02:50:21;;;;;;;0.30;0.30;;;23.80;65.70;;;;;;4997518;28;20059;-51
2022/09/09 02:53:11;;;;;;;0.20;0.10;;;23.80;65.80;;;;;;5001645;28;20144;-44
2022/09/09 02:55:59;;;;;;;0.40;0.30;;;23.80;65.90;;;;;;5015869;28;20042;-45
2022/09/09 02:58:24;;;;;;;0.30;0.22;;;23.80;65.90;;;;;;5000505;28;20177;-45
2022/09/09 03:00:50;;;;;;;0.40;0.20;;;23.80;65.80;;;;;;4998955;28;20130;-48
2022/09/09 03:03:17;;;;;;;0.50;0.38;;;23.80;65.60;;;;;;4998659;28;20093;-43
2022/09/09 03:05:43;;;;;;;0.40;0.30;;;23.80;65.60;;;;;;4999324;28;20046;-44
2022/09/09 03:08:09;;;;;;;0.35;0.30;;;23.80;65.70;;;;;;4998854;28;20134;-43
2022/09/09 03:10:35;;;;;;;0.30;0.30;;;23.80;65.60;;;;;;4996150;28;20120;-48
2022/09/09 03:13:00;;;;;;;0.57;0.30;;;23.80;65.50;;;;;;4999481;28;20041;-45
2022/09/09 03:15:29;;;;;;;0.40;0.40;;;23.80;65.50;;;;;;4996941;28;20042;-45
2022/09/09 03:17:56;;;;;;;0.20;0.20;;;23.80;65.70;;;;;;4995818;28;20050;-44
2022/09/09 03:20:23;;;;;;;0.47;0.35;;;23.80;65.60;;;;;;4995290;28;20110;-36
2022/09/09 03:22:48;;;;;;;0.28;0.10;;;23.80;65.70;;;;;;4997278;28;20069;-45
2022/09/09 03:25:14;;;;;;;0.50;0.20;;;23.80;65.60;;;;;;4999012;28;20516;-47
2022/09/09 03:27:40;;;;;;;0.15;0.15;;;23.70;65.70;;;;;;4994654;28;20068;-50
2022/09/09 03:30:06;;;;;;;0.30;0.30;;;23.80;65.80;;;;;;4996159;28;20037;-44
2022/09/09 03:32:31;;;;;;;0.40;0.20;;;23.80;65.70;;;;;;4994824;28;20038;-44
2022/09/09 03:34:57;;;;;;;0.32;0.20;;;23.80;65.80;;;;;;5003648;28;20050;-50
2022/09/09 03:37:23;;;;;;;0.40;0.30;;;23.80;66.40;;;;;;4997192;28;20026;-31
2022/09/09 03:39:48;;;;;;;1.20;0.30;;;23.80;65.60;;;;;;4998700;28;20042;-45
2022/09/09 03:42:14;;;;;;;0.30;0.20;;;23.80;65.80;;;;;;4996310;28;20073;-45
2022/09/09 03:44:41;;;;;;;0.40;0.20;;;23.70;65.70;;;;;;4994098;28;20046;-46
2022/09/09 03:47:07;;;;;;;0.40;0.20;;;23.70;65.60;;;;;;4997886;28;20041;-44
2022/09/09 03:49:33;;;;;;;1.05;0.20;;;23.70;65.70;;;;;;5000309;28;20049;-45
2022/09/09 03:51:58;;;;;;;0.30;0.25;;;23.70;65.80;;;;;;4996708;28;20397;-45
2022/09/09 03:54:25;;;;;;;0.30;0.30;;;23.70;65.70;;;;;;4996810;28;20050;-41
2022/09/09 03:56:50;;;;;;;0.20;0.10;;;23.70;65.70;;;;;;4999436;28;20061;-42
2022/09/09 03:59:16;;;;;;;0.25;0.20;;;23.80;65.80;;;;;;4998777;28;20046;-44
2022/09/09 04:01:42;;;;;;;0.32;0.20;;;23.70;65.70;;;;;;4998037;28;20129;-45
2022/09/09 04:04:08;;;;;;;0.20;0.20;;;23.80;65.70;;;;;;4996813;28;20034;-48
2022/09/09 04:06:34;;;;;;;0.20;0.20;;;23.70;65.70;;;;;;5000019;28;20045;-43
2022/09/09 04:09:02;;;;;;;0.10;0.10;;;23.70;65.70;;;;;;4999045;28;20038;-45
2022/09/09 04:11:27;;;;;;;0.30;0.30;;;23.70;65.80;;;;;;4999279;28;20061;-42
2022/09/09 04:13:53;;;;;;;0.40;0.20;;;23.70;65.70;;;;;;5001437;28;20042;-43
2022/09/09 04:16:19;;;;;;;0.30;0.10;;;23.60;65.70;;;;;;5002762;28;20069;-42
2022/09/09 04:18:45;;;;;;;0.43;0.20;;;23.70;65.90;;;;;;5001778;28;20054;-47
2022/09/09 04:21:12;;;;;;;3.53;0.40;;;23.70;65.80;;;;;;5002204;28;20042;-47
2022/09/09 04:23:37;;;;;;;0.15;0.10;;;23.70;65.90;;;;;;5001875;28;20061;-44
2022/09/09 04:26:03;;;;;;;0.10;0.10;;;23.70;65.70;;;;;;4998709;28;20623;-43
2022/09/09 04:28:31;;;;;;;0.13;0.10;;;23.70;65.50;;;;;;4998270;28;20118;-43
2022/09/09 04:31:04;;;;;;;0.13;0.10;;;23.70;65.70;;;;;;5001805;28;20502;-43
2022/09/09 04:33:31;;;;;;;0.22;0.15;;;23.70;65.70;;;;;;4999404;28;20049;-43
2022/09/09 04:35:56;;;;;;;1.05;0.30;;;23.70;65.70;;;;;;4997352;28;20041;-47
2022/09/09 04:38:25;;;;;;;0.22;0.10;;;23.70;65.70;;;;;;5002635;28;20042;-43
2022/09/09 04:40:51;;;;;;;0.30;0.20;;;23.70;65.60;;;;;;4998952;28;20049;-44
2022/09/09 04:43:18;;;;;;;0.10;0.10;;;23.70;65.70;;;;;;4998627;28;22101;-42
2022/09/09 04:45:46;;;;;;;0.30;0.25;;;23.70;65.80;;;;;;4999450;28;20512;-42
2022/09/09 04:48:12;;;;;;;0.20;0.13;;;23.70;65.60;;;;;;5001492;28;20054;-53
2022/09/09 04:50:37;;;;;;;0.20;0.10;;;23.70;65.70;;;;;;4996701;28;20480;-49
2022/09/09 04:53:04;;;;;;;0.30;0.10;;;23.70;65.60;;;;;;4999514;28;20038;-52
2022/09/09 04:55:30;;;;;;;0.22;0.10;;;23.70;65.70;;;;;;5000916;28;20149;-45
2022/09/09 04:57:57;;;;;;;0.17;0.17;;;23.70;65.60;;;;;;4997654;28;20640;-45
2022/09/09 05:00:23;;;;;;;0.20;0.10;;;23.70;66.00;;;;;;5000166;28;20524;-50
2022/09/09 05:02:48;;;;;;;0.40;0.30;;;23.70;66.70;;;;;;4998404;28;20057;-50
2022/09/09 05:05:14;;;;;;;1.65;0.20;;;23.70;66.10;;;;;;4998461;28;20053;-42
2022/09/09 05:07:39;;;;;;;0.10;0.10;;;23.70;66.90;;;;;;4996772;28;20546;-47
2022/09/09 05:10:05;;;;;;;0.25;0.10;;;23.70;66.10;;;;;;5002040;28;20117;-43
2022/09/09 05:12:31;;;;;;;0.60;0.25;;;23.60;66.90;;;;;;4996982;28;20530;-43
2022/09/09 05:14:57;;;;;;;0.77;0.30;;;23.70;67.10;;;;;;4998489;28;20047;-44
2022/09/09 05:17:23;;;;;;;0.60;0.20;;;23.70;66.90;;;;;;4999732;28;20048;-43
2022/09/09 05:19:49;;;;;;;0.10;0.10;;;23.70;67.10;;;;;;4992243;28;20540;-48
2022/09/09 05:22:22;;;;;;;0.20;0.10;;;23.60;66.70;;;;;;5006211;28;20054;-44
2022/09/09 05:24:50;;;;;;;2.97;0.20;;;23.70;66.40;;;;;;4996909;28;20049;-51
2022/09/09 05:27:17;;;;;;;2.42;0.50;;;23.70;67.10;;;;;;4652872;28;9999783;-41
2022/09/09 05:29:44;;;;;;;0.63;0.30;;;23.60;66.50;;;;;;5000115;28;20548;-47
2022/09/09 05:32:10;;;;;;;0.70;0.30;;;23.70;67.20;;;;;;5002203;28;20119;-44
2022/09/09 05:34:36;;;;;;;1.90;0.20;;;23.70;66.90;;;;;;4998338;28;20634;-43
2022/09/09 05:37:04;;;;;;;1.95;0.57;;;23.60;66.90;;;;;;4993027;28;21003;-44
2022/09/09 05:39:29;;;;;;;5.45;0.95;;;23.60;66.80;;;;;;4996394;28;20812;-46
2022/09/09 05:41:55;;;;;;;3.63;0.90;;;23.60;66.50;;;;;;4997515;28;20041;-48
2022/09/09 05:44:23;;;;;;;2.70;0.60;;;23.50;67.20;;;;;;4995175;28;20081;-48
2022/09/09 05:46:49;;;;;;;3.95;1.25;;;23.50;67.30;;;;;;4995863;28;20053;-45
2022/09/09 05:49:15;;;;;;;4.10;0.68;;;23.60;66.70;;;;;;4999696;28;20095;-44
2022/09/09 05:51:42;;;;;;;1.77;0.60;;;23.60;66.90;;;;;;4999635;28;20042;-48
2022/09/09 05:54:08;;;;;;;2.47;0.43;;;23.60;66.50;;;;;;4999800;28;20046;-43
2022/09/09 05:56:33;;;;;;;2.53;0.60;;;23.70;66.20;;;;;;5001802;28;20138;-41
2022/09/09 05:59:00;;;;;;;3.15;0.60;;;23.70;66.10;;;;;;5004693;28;20046;-43
2022/09/09 06:01:28;;;;;;;2.20;0.80;;;23.70;65.90;;;;;;4996884;28;20041;-49
2022/09/09 06:03:54;;;;;;;1.60;0.70;;;23.60;65.80;;;;;;4998733;28;20640;-45
2022/09/09 06:06:25;;;;;;;2.75;0.43;;;23.70;65.90;;;;;;5001295;28;20129;-43
2022/09/09 06:08:52;;;;;;;1.58;0.43;;;23.60;66.10;;;;;;4646436;28;10000250;-42
2022/09/09 06:11:21;;;;;;;1.10;0.73;;;23.60;66.30;;;;;;4999432;28;20127;-49
2022/09/09 06:13:47;;;;;;;2.47;0.43;;;23.50;66.40;;;;;;4993474;28;20220;-41
2022/09/09 06:16:15;;;;;;;0.73;0.43;;;23.50;66.40;;;;;;4993449;28;20094;-42
2022/09/09 06:18:41;;;;;;;1.60;0.70;;;23.50;65.90;;;;;;4995452;28;20107;-42
2022/09/09 06:21:09;;;;;;;1.08;0.73;;;23.50;66.20;;;;;;4997188;28;20046;-43
2022/09/09 06:23:35;;;;;;;1.23;0.50;;;23.50;66.00;;;;;;4997746;28;20041;-43
2022/09/09 06:26:05;;;;;;;3.10;0.55;;;23.40;65.80;;;;;;4996644;28;20046;-43
2022/09/09 06:28:34;;;;;;;1.83;0.60;;;23.50;65.90;;;;;;4995824;28;21168;-41
2022/09/09 06:31:01;;;;;;;0.57;0.52;;;23.50;65.70;;;;;;4996457;28;20514;-44
2022/09/09 06:33:27;;;;;;;2.25;0.50;;;23.50;65.60;;;;;;4994403;28;20058;-50
2022/09/09 06:35:53;;;;;;;2.30;0.80;;;23.50;64.90;;;;;;4993455;28;20125;-44
2022/09/09 06:38:19;;;;;;;0.93;0.70;;;23.50;65.20;;;;;;4998245;28;20038;-47
2022/09/09 06:40:55;;;;;;;1.63;0.80;;;23.40;65.30;;;;;;4998460;28;20096;-42
2022/09/09 06:43:21;;;;;;;1.77;0.73;;;23.40;65.30;;;;;;4999453;28;20037;-46
2022/09/09 06:45:57;;;;;;;1.33;0.43;;;23.50;65.20;;;;;;4992862;28;20034;-41
2022/09/09 06:48:25;;;;;;;1.98;0.70;;;23.40;64.70;;;;;;4994599;28;20049;-45
2022/09/09 06:51:03;;;;;;;1.10;0.60;;;23.50;64.80;;;;;;4999180;28;20525;-48
2022/09/09 06:53:29;;;;;;;0.75;0.55;;;23.60;64.90;;;;;;5001861;28;20038;-41
2022/09/09 06:55:55;;;;;;;1.80;0.75;;;23.50;64.70;;;;;;4998254;28;20126;-43
2022/09/09 06:58:23;;;;;;;1.35;0.70;;;23.50;64.90;;;;;;5008806;28;20046;-41
2022/09/09 07:00:49;;;;;;;0.57;0.40;;;23.50;64.90;;;;;;5000408;28;20045;-41
2022/09/09 07:03:14;;;;;;;0.77;0.35;;;23.50;65.00;;;;;;4999326;28;20073;-45
2022/09/09 07:05:40;;;;;;;0.88;0.50;;;23.50;64.90;;;;;;4998432;28;20074;-43
2022/09/09 07:08:06;;;;;;;0.70;0.70;;;23.60;65.50;;;;;;5003001;28;20404;-43
2022/09/09 07:10:31;;;;;;;0.93;0.65;;;23.60;64.80;;;;;;5002918;28;20038;-50
2022/09/09 07:12:57;;;;;;;2.42;0.80;;;23.60;64.70;;;;;;4996139;28;20137;-53
2022/09/09 07:15:23;;;;;;;3.03;0.93;;;23.60;64.70;;;;;;5006511;28;20053;-45
2022/09/09 07:17:48;;;;;;;1.17;0.60;;;23.60;64.50;;;;;;5007778;28;20573;-43
2022/09/09 07:20:14;;;;;;;0.95;0.63;;;23.60;64.60;;;;;;5009968;28;20515;-43
2022/09/09 07:22:40;;;;;;;0.90;0.60;;;23.60;64.50;;;;;;5001639;28;20099;-43
2022/09/09 07:25:07;;;;;;;2.30;0.50;;;23.60;64.60;;;;;;5001984;28;20038;-47
2022/09/09 07:27:32;;;;;;;0.90;0.55;;;23.60;64.50;;;;;;4997810;28;20050;-43
2022/09/09 07:29:58;;;;;;;1.80;0.82;;;23.70;64.40;;;;;;4997504;28;20472;-47
2022/09/09 07:32:25;;;;;;;1.45;0.80;;;23.80;64.10;;;;;;4996527;28;20465;-46
2022/09/09 07:34:51;;;;;;;0.70;0.40;;;23.70;64.20;;;;;;5018645;28;20030;-45
2022/09/09 07:37:17;;;;;;;2.55;0.57;;;23.70;64.30;;;;;;5012466;28;20060;-46
2022/09/09 07:39:43;;;;;;;2.20;0.60;;;23.70;64.30;;;;;;4996586;28;20512;-43
2022/09/09 07:42:10;;;;;;;0.98;0.50;;;23.70;64.30;;;;;;4995116;28;20099;-44
2022/09/09 07:44:36;;;;;;;1.27;0.47;;;23.70;64.30;;;;;;4998974;28;20045;-43
2022/09/09 07:47:02;;;;;;;0.85;0.50;;;23.70;64.30;;;;;;4999769;28;20045;-43
2022/09/09 07:49:28;;;;;;;1.40;0.60;;;23.60;64.20;;;;;;5001768;28;20047;-43
2022/09/09 07:51:53;;;;;;;1.33;0.70;;;23.60;65.10;;;;;;4997531;28;20037;-45
2022/09/09 07:54:20;;;;;;;0.63;0.43;;;23.70;64.30;;;;;;4998262;28;20049;-42
2022/09/09 07:56:46;;;;;;;1.20;0.30;;;23.60;64.20;;;;;;4997678;28;20069;-42
2022/09/09 07:59:12;;;;;;;1.35;0.55;;;23.70;64.20;;;;;;4997316;28;20132;-43
2022/09/09 08:01:39;;;;;;;0.60;0.40;;;23.70;64.20;;;;;;5001098;28;20034;-44
2022/09/09 08:04:07;;;;;;;0.60;0.40;;;23.80;64.00;;;;;;4999604;28;20062;-44
2022/09/09 08:06:37;;;;;;;1.90;0.50;;;23.80;63.80;;;;;;4995651;28;20038;-52
2022/09/09 08:09:03;;;;;;;0.60;0.52;;;23.80;64.70;;;;;;4994714;28;20052;-44
2022/09/09 08:11:29;;;;;;;0.50;0.40;;;23.80;63.80;;;;;;4998134;28;20425;-47
2022/09/09 08:13:55;;;;;;;1.05;0.80;;;23.80;63.80;;;;;;4998264;28;20042;-46
2022/09/09 08:16:22;;;;;;;0.63;0.40;;;23.80;63.80;;;;;;4999614;28;20126;-48
2022/09/09 08:18:51;;;;;;;1.10;0.40;;;23.80;63.70;;;;;;4995191;28;20045;-43
2022/09/09 08:21:19;;;;;;;0.50;0.50;;;23.70;63.80;;;;;;4996657;28;20053;-44
2022/09/09 08:23:45;;;;;;;0.45;0.30;;;23.70;63.80;;;;;;4995598;28;20547;-41
2022/09/09 08:26:13;;;;;;;0.75;0.60;;;23.70;63.90;;;;;;4999558;28;20054;-45
2022/09/09 08:28:39;;;;;;;1.17;0.55;;;23.70;63.80;;;;;;5082088;28;20079;-46
2022/09/09 08:31:18;;;;;;;0.57;0.38;;;23.70;63.90;;;;;;4994130;28;20108;-42
2022/09/09 08:33:45;;;;;;;0.80;0.30;;;23.70;63.70;;;;;;4996653;28;20050;-49
2022/09/09 08:36:15;;;;;;;0.93;0.30;;;23.70;63.90;;;;;;4997831;28;20042;-46
2022/09/09 08:38:41;;;;;;;0.75;0.50;;;23.70;63.80;;;;;;4994607;28;20031;-42
2022/09/09 08:41:30;;;;;;;0.52;0.40;;;23.70;63.80;;;;;;4999249;28;20076;-43
2022/09/09 08:44:11;;;;;;;0.88;0.50;;;23.70;63.80;;;;;;4995948;28;20053;-43
2022/09/09 08:46:42;;;;;;;0.52;0.32;;;23.70;63.80;;;;;;4965028;28;20293;-43
2022/09/09 08:49:46;;;;;;;0.38;0.30;;;23.70;63.80;;;;;;4999224;28;20038;-43
2022/09/09 08:53:10;;;;;;;0.73;0.40;;;23.70;63.90;;;;;;4996827;28;20213;-45
2022/09/09 08:55:42;;;;;;;0.50;0.30;;;23.70;63.90;;;;;;4962895;28;20031;-45
2022/09/09 08:58:17;;;;;;;0.82;0.30;;;23.70;63.90;;;;;;4965866;28;20054;-46
2022/09/09 09:00:56;;;;;;;0.40;0.35;;;23.70;63.90;;;;;;4960726;28;20138;-44
2022/09/09 09:03:32;;;;;;;0.40;0.30;;;23.70;63.70;;;;;;4944444;28;20039;-43
2022/09/09 09:06:22;;;;;;;0.47;0.25;;;23.70;63.80;;;;;;4962734;28;20055;-46
2022/09/09 09:09:01;;;;;;;1.30;0.57;;;23.70;63.80;;;;;;4968520;28;20039;-43
2022/09/09 09:11:26;;;;;;;0.70;0.40;;;23.70;63.70;;;;;;4964788;28;20043;-43
2022/09/09 09:14:03;;;;;;;0.40;0.30;;;23.70;63.80;;;;;;4967460;28;20049;-43
2022/09/09 09:16:32;;;;;;;1.00;0.30;;;23.70;63.80;;;;;;4960274;28;20110;-42
2022/09/09 09:18:58;;;;;;;0.60;0.30;;;23.70;63.80;;;;;;4960517;28;20039;-42
2022/09/09 09:21:38;;;;;;;0.90;0.90;;;23.70;64.60;;;;;;4967853;28;20047;-44
2022/09/09 09:24:05;;;;;;;0.47;0.38;;;23.70;63.60;;;;;;4961032;28;20046;-43
2022/09/09 09:26:32;;;;;;;0.77;0.60;;;23.70;63.80;;;;;;4963694;28;20641;-44
2022/09/09 09:28:59;;;;;;;0.70;0.40;;;23.70;63.60;;;;;;4974985;28;20088;-47
2022/09/09 09:31:26;;;;;;;0.43;0.30;;;23.70;63.60;;;;;;4987649;28;20046;-48
2022/09/09 09:33:53;;;;;;;0.82;0.30;;;23.60;63.60;;;;;;4992957;28;20053;-51
2022/09/09 09:36:20;;;;;;;0.65;0.30;;;23.70;63.70;;;;;;4995881;28;20065;-42
2022/09/09 09:38:56;;;;;;;1.67;0.52;;;23.70;63.80;;;;;;4994493;28;20072;-49
2022/09/09 09:41:31;;;;;;;0.80;0.50;;;23.70;63.50;;;;;;5000335;28;20046;-43
2022/09/09 09:43:57;;;;;;;0.60;0.30;;;23.70;63.60;;;;;;5000064;28;20511;-45
2022/09/09 09:46:23;;;;;;;0.55;0.25;;;23.70;63.50;;;;;;4996637;28;20038;-47
2022/09/09 09:48:59;;;;;;;1.05;0.40;;;23.70;63.60;;;;;;4995862;28;20042;-43
2022/09/09 09:51:25;;;;;;;0.52;0.32;;;23.60;64.00;;;;;;4994834;28;21627;-48
2022/09/09 09:53:52;;;;;;;0.45;0.22;;;23.60;64.00;;;;;;4996391;28;20612;-46
2022/09/09 09:56:18;;;;;;;0.52;0.25;;;23.60;64.00;;;;;;5000593;28;20046;-46
2022/09/09 09:58:44;;;;;;;0.30;0.20;;;23.60;63.90;;;;;;4996173;28;20108;-42
2022/09/09 10:01:33;;;;;;;2.85;0.40;;;23.70;64.20;;;;;;4996772;28;20684;-45
2022/09/09 10:04:12;;;;;;;0.45;0.40;;;23.60;63.90;;;;;;4992292;28;20042;-45
2022/09/09 10:06:39;;;;;;;0.43;0.28;;;23.60;64.20;;;;;;4997102;28;20062;-44
2022/09/09 10:09:21;;;;;;;0.40;0.30;;;23.70;64.20;;;;;;4996747;28;20418;-45
2022/09/09 10:11:55;;;;;;;0.60;0.30;;;23.60;64.00;;;;;;4989222;28;20515;-45
2022/09/09 10:14:24;;;;;;;0.60;0.50;;;23.70;64.20;;;;;;4993962;28;20452;-42
2022/09/09 10:16:54;;;;;;;0.60;0.28;;;23.70;64.00;;;;;;5003164;28;20564;-53
2022/09/09 10:19:32;;;;;;;0.80;0.40;;;23.70;64.00;;;;;;4994341;28;20042;-45
2022/09/09 10:22:06;;;;;;;0.63;0.50;;;23.80;63.90;;;;;;4998643;28;20042;-52
2022/09/09 10:24:59;;;;;;;0.50;0.38;;;23.80;64.10;;;;;;4975896;28;20042;-48
2022/09/09 10:27:37;;;;;;;0.60;0.20;;;23.80;64.00;;;;;;4990467;28;20436;-44
2022/09/09 10:30:18;;;;;;;0.50;0.38;;;23.80;64.00;;;;;;4996695;28;20586;-44
2022/09/09 10:33:05;;;;;;;0.57;0.22;;;23.80;64.10;;;;;;4996236;28;20053;-44
2022/09/09 10:35:36;;;;;;;1.42;0.30;;;23.90;64.40;;;;;;5010457;28;20573;-45
2022/09/09 10:38:17;;;;;;;2.30;0.50;;;23.80;64.40;;;;;;4994213;28;20132;-46
2022/09/09 10:40:58;;;;;;;0.70;0.43;;;23.90;64.50;;;;;;4655213;28;10000109;-50
2022/09/09 10:43:34;;;;;;;0.47;0.30;;;23.90;64.60;;;;;;4996518;28;20145;-43
2022/09/09 10:46:38;;;;;;;4.25;0.60;;;23.80;64.50;;;;;;4994121;28;20449;-48
2022/09/09 10:49:16;;;;;;;0.82;0.57;;;23.80;64.30;;;;;;4649776;28;10001059;-46
2022/09/09 10:52:14;;;;;;;0.93;0.77;;;23.80;64.30;;;;;;5008105;28;20072;-45
2022/09/09 10:55:09;;;;;;;1.20;0.40;;;23.80;64.10;;;;;;5015188;28;20057;-45
2022/09/09 10:57:52;;;;;;;0.75;0.43;;;23.80;64.40;;;;;;4998618;28;20046;-46
2022/09/09 11:00:23;;;;;;;1.38;0.47;;;23.80;64.50;;;;;;4993992;28;20060;-43
2022/09/09 11:03:14;;;;;;;1.75;0.60;;;23.90;64.80;;;;;;4993754;28;20053;-40
2022/09/09 11:05:44;;;;;;;0.93;0.30;;;23.90;64.70;;;;;;4989954;28;20045;-46
2022/09/09 11:08:11;;;;;;;0.95;0.50;;;23.90;64.90;;;;;;4995143;28;20062;-48
2022/09/09 11:10:59;;;;;;;0.65;0.50;;;23.90;65.10;;;;;;4996986;28;20091;-48
2022/09/09 11:13:31;;;;;;;0.63;0.40;;;23.90;65.20;;;;;;4991683;28;20393;-42
2022/09/09 11:16:04;;;;;;;0.50;0.47;;;23.90;65.00;;;;;;5009347;28;20563;-46
2022/09/09 11:18:30;;;;;;;1.95;0.45;;;23.90;64.90;;;;;;5011070;28;20054;-44
2022/09/09 11:20:59;;;;;;;1.10;0.43;;;23.90;65.00;;;;;;5002222;28;21260;-48
2022/09/09 11:23:40;;;;;;;1.30;0.40;;;23.90;65.00;;;;;;5002557;28;20045;-44
2022/09/09 11:26:07;;;;;;;0.43;0.20;;;23.90;64.90;;;;;;5020531;28;20058;-41
2022/09/09 11:28:41;;;;;;;1.38;0.52;;;23.90;65.00;;;;;;5000286;28;20072;-43
2022/09/09 11:31:39;;;;;;;0.75;0.20;;;23.90;64.80;;;;;;4993798;28;20058;-43
2022/09/09 11:34:22;;;;;;;0.57;0.30;;;23.90;65.00;;;;;;4996459;28;20113;-43
2022/09/09 11:37:09;;;;;;;0.82;0.43;;;24.00;65.00;;;;;;4997347;28;20081;-43
2022/09/09 11:40:00;;;;;;;0.40;0.20;;;24.00;64.80;;;;;;4648465;28;10000315;-44
2022/09/09 11:42:25;;;;;;;0.70;0.45;;;24.00;64.80;;;;;;4991048;28;20411;-42
2022/09/09 11:44:51;;;;;;;3.60;0.40;;;23.90;64.70;;;;;;4993979;28;20588;-43
2022/09/09 11:47:26;;;;;;;1.17;0.30;;;23.90;64.50;;;;;;4994180;28;20074;-50
2022/09/09 11:49:53;;;;;;;1.92;0.40;;;23.90;64.50;;;;;;4994403;28;20073;-43
2022/09/09 11:52:25;;;;;;;0.60;0.52;;;23.90;64.60;;;;;;4994895;28;20061;-47
2022/09/09 11:54:51;;;;;;;0.93;0.30;;;23.90;64.30;;;;;;4996873;28;20141;-43
2022/09/09 11:57:35;;;;;;;0.77;0.35;;;23.90;64.30;;;;;;4993895;28;20886;-43
2022/09/09 12:00:02;;;;;;;1.10;0.32;;;23.90;64.20;;;;;;4995211;28;20038;-44
2022/09/09 12:02:30;;;;;;;1.02;0.30;;;23.90;64.20;;;;;;4994260;28;20077;-45
2022/09/09 12:05:09;;;;;;;2.70;0.57;;;23.90;64.30;;;;;;4993499;28;20046;-46
2022/09/09 12:07:42;;;;;;;0.60;0.20;;;24.00;64.90;;;;;;5001553;28;20068;-47
2022/09/09 12:10:08;;;;;;;0.30;0.30;;;24.00;64.60;;;;;;4980271;28;20125;-44
2022/09/09 12:12:35;;;;;;;0.90;0.70;;;24.00;64.40;;;;;;4994067;28;20090;-49
2022/09/09 12:15:07;;;;;;;0.98;0.30;;;24.10;64.40;;;;;;4999124;28;20774;-51
2022/09/09 12:17:53;;;;;;;0.30;0.30;;;24.10;64.40;;;;;;4995603;28;20075;-47
2022/09/09 12:20:21;;;;;;;1.33;0.40;;;24.10;64.40;;;;;;4996706;28;20054;-44
2022/09/09 12:23:06;;;;;;;0.60;0.32;;;24.10;64.40;;;;;;5008015;28;20175;-42
2022/09/09 12:25:53;;;;;;;0.30;0.20;;;24.20;64.20;;;;;;4996131;28;20052;-49
2022/09/09 12:28:23;;;;;;;0.43;0.30;;;24.10;64.10;;;;;;5009786;28;20061;-45
2022/09/09 12:30:51;;;;;;;1.27;0.35;;;24.20;64.20;;;;;;4999303;28;20047;-48
2022/09/09 12:33:18;;;;;;;0.30;0.20;;;24.10;64.10;;;;;;4996378;28;20046;-41
2022/09/09 12:35:45;;;;;;;0.38;0.25;;;24.20;64.20;;;;;;5000297;28;20136;-42
2022/09/09 12:38:19;;;;;;;1.90;0.32;;;24.20;64.20;;;;;;5020643;27;20052;-46
2022/09/09 12:40:54;;;;;;;0.30;0.20;;;24.20;63.90;;;;;;4987184;28;20048;-44
2022/09/09 12:43:21;;;;;;;0.57;0.40;;;24.20;64.10;;;;;;4995084;28;20676;-41
2022/09/09 12:45:47;;;;;;;0.70;0.30;;;24.20;64.00;;;;;;5000977;28;20125;-44
2022/09/09 12:48:15;;;;;;;0.75;0.38;;;24.20;63.90;;;;;;4994172;28;20320;-49
2022/09/09 12:50:46;;;;;;;1.83;0.28;;;24.20;64.00;;;;;;5000531;28;20068;-45
2022/09/09 12:53:28;;;;;;;0.68;0.20;;;24.20;64.00;;;;;;5008697;28;20512;-45
2022/09/09 12:56:09;;;;;;;1.08;0.40;;;24.20;63.90;;;;;;5012018;28;20038;-48
2022/09/09 12:58:39;;;;;;;1.00;0.25;;;24.20;63.80;;;;;;5018235;28;20048;-52
2022/09/09 13:01:05;;;;;;;0.40;0.22;;;24.30;63.90;;;;;;4997782;28;20042;-55
2022/09/09 13:03:31;;;;;;;0.22;0.20;;;24.30;63.70;;;;;;4997682;28;20049;-51
2022/09/09 13:06:00;;;;;;;0.50;0.28;;;24.30;64.00;;;;;;4995761;28;20074;-45